sensor_id;sensor_type;location;lat;lon;timestamp;pressure;altitude;pressure_sealevel;temperature;humidity
78182;BME280;67441;50.116;8.696;2023-02-18T00:00:10;100992.34;;;11.00;79.05
78182;BME280;67441;50.116;8.696;2023-02-18T00:00:36;101089.97;;;11.53;78.98
78182;BME280;67441;50.116;8.696;2023-02-18T00:01:01;101077.72;;;11.54;78.94
78182;BME280;67441;50.116;8.696;2023-02-18T00:01:27;101000.28;;;11.02;78.89
78182;BME280;67441;50.116;8.696;2023-02-18T00:01:54;101084.69;;;11.50;78.94
78182;BME280;67441;50.116;8.696;2023-02-18T00:02:19;101080.31;;;11.52;79.09
78182;BME280;67441;50.116;8.696;2023-02-18T00:02:45;101083.78;;;11.50;78.89
78182;BME280;67441;50.116;8.696;2023-02-18T00:03:10;100991.47;;;11.00;78.71
78182;BME280;67441;50.116;8.696;2023-02-18T00:03:36;101077.72;;;11.54;78.94
78182;BME280;67441;50.116;8.696;2023-02-18T00:04:01;101080.28;;;11.51;78.99
78182;BME280;67441;50.116;8.696;2023-02-18T00:04:26;101087.41;;;11.55;78.98
78182;BME280;67441;50.116;8.696;2023-02-18T00:04:53;101078.63;;;11.56;78.70
78182;BME280;67441;50.116;8.696;2023-02-18T00:05:18;101082.19;;;11.58;78.79
78182;BME280;67441;50.116;8.696;2023-02-18T00:05:44;101085.75;;;11.61;78.48
78182;BME280;67441;50.116;8.696;2023-02-18T00:06:14;101079.50;;;11.56;78.77
78182;BME280;67441;50.116;8.696;2023-02-18T00:06:39;100969.22;;;10.85;78.52
78182;BME280;67441;50.116;8.696;2023-02-18T00:07:05;101077.94;;;11.66;78.54
78182;BME280;67441;50.116;8.696;2023-02-18T00:07:37;101103.41;;;11.65;78.61
78182;BME280;67441;50.116;8.696;2023-02-18T00:08:03;100963.16;;;10.89;78.42
78182;BME280;67441;50.116;8.696;2023-02-18T00:08:28;101079.59;;;11.61;78.62
78182;BME280;67441;50.116;8.696;2023-02-18T00:08:54;100974.72;;;10.96;78.50
78182;BME280;67441;50.116;8.696;2023-02-18T00:09:21;101022.63;;;11.22;78.70
78182;BME280;67441;50.116;8.696;2023-02-18T00:09:46;101076.84;;;11.55;78.69
78182;BME280;67441;50.116;8.696;2023-02-18T00:10:15;100842.34;;;10.15;78.62
78182;BME280;67441;50.116;8.696;2023-02-18T00:10:41;101075.78;;;11.45;78.51
78182;BME280;67441;50.116;8.696;2023-02-18T00:11:08;101032.53;;;11.35;78.52
78182;BME280;67441;50.116;8.696;2023-02-18T00:11:33;101078.72;;;11.60;78.56
78182;BME280;67441;50.116;8.696;2023-02-18T00:11:59;101082.19;;;11.58;78.71
78182;BME280;67441;50.116;8.696;2023-02-18T00:12:24;101060.84;;;11.44;78.62
78182;BME280;67441;50.116;8.696;2023-02-18T00:12:50;101086.59;;;11.59;78.56
78182;BME280;67441;50.116;8.696;2023-02-18T00:13:15;101079.50;;;11.55;78.74
78182;BME280;67441;50.116;8.696;2023-02-18T00:13:41;100929.38;;;10.67;78.84
78182;BME280;67441;50.116;8.696;2023-02-18T00:14:09;101082.13;;;11.56;78.92
78182;BME280;67441;50.116;8.696;2023-02-18T00:14:37;100900.19;;;10.56;78.75
78182;BME280;67441;50.116;8.696;2023-02-18T00:15:03;101083.13;;;11.63;78.76
78182;BME280;67441;50.116;8.696;2023-02-18T00:15:28;101083.25;;;11.68;78.52
78182;BME280;67441;50.116;8.696;2023-02-18T00:15:53;101010.31;;;11.21;78.43
78182;BME280;67441;50.116;8.696;2023-02-18T00:16:19;101084.91;;;11.62;78.57
78182;BME280;67441;50.116;8.696;2023-02-18T00:16:45;101087.53;;;11.61;78.70
78182;BME280;67441;50.116;8.696;2023-02-18T00:17:10;100971.16;;;10.94;78.27
78182;BME280;67441;50.116;8.696;2023-02-18T00:17:35;101087.47;;;11.59;78.45
78182;BME280;67441;50.116;8.696;2023-02-18T00:18:01;100611.66;;;8.79;78.34
78182;BME280;67441;50.116;8.696;2023-02-18T00:18:26;101083.00;;;11.55;78.60
78182;BME280;67441;50.116;8.696;2023-02-18T00:18:56;100758.13;;;9.70;78.42
78182;BME280;67441;50.116;8.696;2023-02-18T00:19:21;100998.50;;;11.01;78.65
78182;BME280;67441;50.116;8.696;2023-02-18T00:19:46;101073.28;;;11.51;78.75
78182;BME280;67441;50.116;8.696;2023-02-18T00:20:12;100792.59;;;9.84;78.51
78182;BME280;67441;50.116;8.696;2023-02-18T00:20:37;101074.00;;;11.44;79.09
78182;BME280;67441;50.116;8.696;2023-02-18T00:21:04;100770.25;;;9.63;78.61
78182;BME280;67441;50.116;8.696;2023-02-18T00:21:31;100742.00;;;9.53;78.85
78182;BME280;67441;50.116;8.696;2023-02-18T00:21:57;101026.91;;;11.15;78.91
78182;BME280;67441;50.116;8.696;2023-02-18T00:22:23;101081.19;;;11.51;78.73
78182;BME280;67441;50.116;8.696;2023-02-18T00:22:49;100856.69;;;10.30;78.72
78182;BME280;67441;50.116;8.696;2023-02-18T00:23:14;101078.63;;;11.56;78.61
78182;BME280;67441;50.116;8.696;2023-02-18T00:23:40;100954.09;;;10.75;78.38
78182;BME280;67441;50.116;8.696;2023-02-18T00:24:05;101075.09;;;11.55;78.41
78182;BME280;67441;50.116;8.696;2023-02-18T00:24:31;101086.59;;;11.59;78.40
78182;BME280;67441;50.116;8.696;2023-02-18T00:24:56;101071.66;;;11.59;78.44
78182;BME280;67441;50.116;8.696;2023-02-18T00:25:22;100655.00;;;8.98;78.05
78182;BME280;67441;50.116;8.696;2023-02-18T00:25:48;100844.91;;;10.14;78.28
78182;BME280;67441;50.116;8.696;2023-02-18T00:26:14;101077.63;;;11.49;78.36
78182;BME280;67441;50.116;8.696;2023-02-18T00:26:40;100951.31;;;10.67;77.96
78182;BME280;67441;50.116;8.696;2023-02-18T00:27:06;101066.97;;;11.43;78.53
78182;BME280;67441;50.116;8.696;2023-02-18T00:27:31;100983.38;;;10.90;77.94
78182;BME280;67441;50.116;8.696;2023-02-18T00:27:56;101072.31;;;11.48;78.24
78182;BME280;67441;50.116;8.696;2023-02-18T00:28:22;100910.56;;;10.48;78.31
78182;BME280;67441;50.116;8.696;2023-02-18T00:28:47;101073.97;;;11.42;78.28
78182;BME280;67441;50.116;8.696;2023-02-18T00:29:13;100742.81;;;9.52;78.19
78182;BME280;67441;50.116;8.696;2023-02-18T00:29:38;101073.97;;;11.42;78.14
78182;BME280;67441;50.116;8.696;2023-02-18T00:30:04;101086.41;;;11.50;78.13
78182;BME280;67441;50.116;8.696;2023-02-18T00:30:29;101065.31;;;11.48;77.77
78182;BME280;67441;50.116;8.696;2023-02-18T00:30:55;100868.09;;;10.32;77.70
78182;BME280;67441;50.116;8.696;2023-02-18T00:31:21;101075.84;;;11.50;77.75
78182;BME280;67441;50.116;8.696;2023-02-18T00:31:47;100951.63;;;10.83;77.23
78182;BME280;67441;50.116;8.696;2023-02-18T00:32:12;101074.13;;;11.50;77.43
78182;BME280;67441;50.116;8.696;2023-02-18T00:32:38;101079.44;;;11.52;77.55
78182;BME280;67441;50.116;8.696;2023-02-18T00:33:03;101076.78;;;11.52;77.44
78182;BME280;67441;50.116;8.696;2023-02-18T00:33:29;100853.81;;;10.19;77.44
78182;BME280;67441;50.116;8.696;2023-02-18T00:33:55;101072.34;;;11.49;77.49
78182;BME280;67441;50.116;8.696;2023-02-18T00:34:20;101081.19;;;11.51;77.38
78182;BME280;67441;50.116;8.696;2023-02-18T00:34:46;101074.13;;;11.50;77.50
78182;BME280;67441;50.116;8.696;2023-02-18T00:35:11;100704.78;;;9.35;77.35
78182;BME280;67441;50.116;8.696;2023-02-18T00:35:36;101080.22;;;11.48;77.29
78182;BME280;67441;50.116;8.696;2023-02-18T00:36:04;101111.00;;;11.49;77.54
78182;BME280;67441;50.116;8.696;2023-02-18T00:36:31;101089.97;;;11.52;77.41
78182;BME280;67441;50.116;8.696;2023-02-18T00:36:57;101033.00;;;11.14;77.52
78182;BME280;67441;50.116;8.696;2023-02-18T00:37:22;101085.50;;;11.48;77.56
78182;BME280;67441;50.116;8.696;2023-02-18T00:37:51;100941.69;;;10.69;77.36
78182;BME280;67441;50.116;8.696;2023-02-18T00:38:17;101096.00;;;11.45;77.49
78182;BME280;67441;50.116;8.696;2023-02-18T00:38:45;101085.47;;;11.46;77.89
78182;BME280;67441;50.116;8.696;2023-02-18T00:39:11;101068.69;;;11.42;77.87
78182;BME280;67441;50.116;8.696;2023-02-18T00:39:36;101084.63;;;11.49;77.68
78182;BME280;67441;50.116;8.696;2023-02-18T00:40:02;101088.00;;;11.40;77.75
78182;BME280;67441;50.116;8.696;2023-02-18T00:40:28;101082.75;;;11.41;78.08
78182;BME280;67441;50.116;8.696;2023-02-18T00:40:53;100787.25;;;9.81;77.78
78182;BME280;67441;50.116;8.696;2023-02-18T00:41:19;101089.78;;;11.41;78.37
78182;BME280;67441;50.116;8.696;2023-02-18T00:41:45;101080.16;;;11.43;78.19
78182;BME280;67441;50.116;8.696;2023-02-18T00:42:10;101089.00;;;11.47;78.20
78182;BME280;67441;50.116;8.696;2023-02-18T00:42:35;100932.63;;;10.55;77.88
78182;BME280;67441;50.116;8.696;2023-02-18T00:43:01;101083.75;;;11.47;78.06
78182;BME280;67441;50.116;8.696;2023-02-18T00:43:26;101087.22;;;11.46;78.23
78182;BME280;67441;50.116;8.696;2023-02-18T00:43:51;101078.47;;;11.48;78.37
78182;BME280;67441;50.116;8.696;2023-02-18T00:44:17;101020.78;;;11.16;78.41
78182;BME280;67441;50.116;8.696;2023-02-18T00:44:42;101078.50;;;11.50;78.37
78182;BME280;67441;50.116;8.696;2023-02-18T00:45:08;101074.16;;;11.53;78.37
78182;BME280;67441;50.116;8.696;2023-02-18T00:45:33;101079.44;;;11.53;78.28
78182;BME280;67441;50.116;8.696;2023-02-18T00:45:58;100824.22;;;9.88;78.13
78182;BME280;67441;50.116;8.696;2023-02-18T00:46:24;101076.88;;;11.56;78.09
78182;BME280;67441;50.116;8.696;2023-02-18T00:46:49;101079.38;;;11.49;78.38
78182;BME280;67441;50.116;8.696;2023-02-18T00:47:15;101075.84;;;11.50;78.43
78182;BME280;67441;50.116;8.696;2023-02-18T00:47:41;101051.91;;;11.37;78.63
78182;BME280;67441;50.116;8.696;2023-02-18T00:48:06;101076.84;;;11.55;78.55
78182;BME280;67441;50.116;8.696;2023-02-18T00:48:31;101008.47;;;11.15;78.47
78182;BME280;67441;50.116;8.696;2023-02-18T00:48:57;101075.03;;;11.52;78.48
78182;BME280;67441;50.116;8.696;2023-02-18T00:49:22;101086.44;;;11.51;78.54
78182;BME280;67441;50.116;8.696;2023-02-18T00:49:47;101075.78;;;11.45;78.74
78182;BME280;67441;50.116;8.696;2023-02-18T00:50:13;101080.09;;;11.41;79.01
78182;BME280;67441;50.116;8.696;2023-02-18T00:50:38;101075.72;;;11.40;78.88
78182;BME280;67441;50.116;8.696;2023-02-18T00:51:05;101009.03;;;10.99;79.16
78182;BME280;67441;50.116;8.696;2023-02-18T00:51:31;101079.28;;;11.44;79.38
78182;BME280;67441;50.116;8.696;2023-02-18T00:51:56;101085.44;;;11.45;78.94
78182;BME280;67441;50.116;8.696;2023-02-18T00:52:21;100646.88;;;8.88;78.65
78182;BME280;67441;50.116;8.696;2023-02-18T00:52:46;101082.69;;;11.38;79.28
78182;BME280;67441;50.116;8.696;2023-02-18T00:53:12;101085.31;;;11.37;78.76
78182;BME280;67441;50.116;8.696;2023-02-18T00:53:38;101083.50;;;11.36;79.02
78182;BME280;67441;50.116;8.696;2023-02-18T00:54:03;101007.81;;;10.83;79.10
78182;BME280;67441;50.116;8.696;2023-02-18T00:54:28;101080.03;;;11.38;79.16
78182;BME280;67441;50.116;8.696;2023-02-18T00:54:54;101007.94;;;10.88;79.06
78182;BME280;67441;50.116;8.696;2023-02-18T00:55:19;101081.88;;;11.41;79.06
78182;BME280;67441;50.116;8.696;2023-02-18T00:55:45;100527.91;;;8.12;78.82
78182;BME280;67441;50.116;8.696;2023-02-18T00:56:12;101031.00;;;11.01;79.09
78182;BME280;67441;50.116;8.696;2023-02-18T00:56:37;101085.38;;;11.40;78.99
78182;BME280;67441;50.116;8.696;2023-02-18T00:57:03;100833.16;;;9.96;78.95
78182;BME280;67441;50.116;8.696;2023-02-18T00:57:28;101082.69;;;11.38;79.15
78182;BME280;67441;50.116;8.696;2023-02-18T00:57:54;101060.22;;;11.13;79.04
78182;BME280;67441;50.116;8.696;2023-02-18T00:58:20;101093.34;;;11.43;79.21
78182;BME280;67441;50.116;8.696;2023-02-18T00:58:45;100540.47;;;8.26;78.68
78182;BME280;67441;50.116;8.696;2023-02-18T00:59:11;101091.53;;;11.40;79.26
78182;BME280;67441;50.116;8.696;2023-02-18T00:59:36;100837.66;;;9.63;79.33
78182;BME280;67441;50.116;8.696;2023-02-18T01:00:03;101086.25;;;11.42;79.26
78182;BME280;67441;50.116;8.696;2023-02-18T01:00:29;100969.91;;;10.75;79.11
78182;BME280;67441;50.116;8.696;2023-02-18T01:00:55;100961.19;;;10.78;79.23
78182;BME280;67441;50.116;8.696;2023-02-18T01:01:20;100937.53;;;10.38;79.15
78182;BME280;67441;50.116;8.696;2023-02-18T01:01:46;101086.44;;;11.51;78.99
78182;BME280;67441;50.116;8.696;2023-02-18T01:02:11;100880.91;;;10.15;78.79
78182;BME280;67441;50.116;8.696;2023-02-18T01:02:36;101090.97;;;11.58;78.87
78182;BME280;67441;50.116;8.696;2023-02-18T01:03:02;101091.06;;;11.63;78.86
78182;BME280;67441;50.116;8.696;2023-02-18T01:03:28;101091.00;;;11.60;78.97
78182;BME280;67441;50.116;8.696;2023-02-18T01:03:53;101091.06;;;11.63;78.97
78182;BME280;67441;50.116;8.696;2023-02-18T01:04:19;100973.94;;;11.02;78.99
78182;BME280;67441;50.116;8.696;2023-02-18T01:04:44;101092.03;;;11.68;79.44
78182;BME280;67441;50.116;8.696;2023-02-18T01:05:10;101094.69;;;11.68;80.17
78182;BME280;67441;50.116;8.696;2023-02-18T01:05:36;101089.41;;;11.70;79.84
78182;BME280;67441;50.116;8.696;2023-02-18T01:06:06;101096.47;;;11.71;80.24
78182;BME280;67441;50.116;8.696;2023-02-18T01:06:32;100661.25;;;9.05;79.92
78182;BME280;67441;50.116;8.696;2023-02-18T01:06:58;101105.16;;;11.65;80.62
78182;BME280;67441;50.116;8.696;2023-02-18T01:07:23;101083.13;;;11.63;80.65
78182;BME280;67441;50.116;8.696;2023-02-18T01:07:49;100996.84;;;11.06;80.85
78182;BME280;67441;50.116;8.696;2023-02-18T01:08:19;100683.53;;;9.24;81.23
78182;BME280;67441;50.116;8.696;2023-02-18T01:08:46;100979.78;;;10.87;81.24
78182;BME280;67441;50.116;8.696;2023-02-18T01:09:11;101118.16;;;11.54;81.26
78182;BME280;67441;50.116;8.696;2023-02-18T01:09:36;101091.78;;;11.54;81.61
78182;BME280;67441;50.116;8.696;2023-02-18T01:10:02;101086.47;;;11.53;81.33
78182;BME280;67441;50.116;8.696;2023-02-18T01:10:28;101097.69;;;11.41;81.26
78182;BME280;67441;50.116;8.696;2023-02-18T01:10:55;101086.09;;;11.33;81.79
78182;BME280;67441;50.116;8.696;2023-02-18T01:11:25;101059.34;;;11.13;82.28
78182;BME280;67441;50.116;8.696;2023-02-18T01:11:50;101087.88;;;11.34;82.35
78182;BME280;67441;50.116;8.696;2023-02-18T01:12:16;101087.00;;;11.33;82.48
78182;BME280;67441;50.116;8.696;2023-02-18T01:12:42;101086.03;;;11.30;82.39
78182;BME280;67441;50.116;8.696;2023-02-18T01:13:08;101079.84;;;11.28;82.74
78182;BME280;67441;50.116;8.696;2023-02-18T01:13:33;101076.34;;;11.29;82.84
78182;BME280;67441;50.116;8.696;2023-02-18T01:13:59;100671.78;;;8.69;82.89
78182;BME280;67441;50.116;8.696;2023-02-18T01:14:24;101082.41;;;11.23;83.26
78182;BME280;67441;50.116;8.696;2023-02-18T01:14:49;100721.03;;;9.17;82.55
78182;BME280;67441;50.116;8.696;2023-02-18T01:15:15;101075.28;;;11.19;83.00
78182;BME280;67441;50.116;8.696;2023-02-18T01:15:41;100383.22;;;7.16;82.43
78182;BME280;67441;50.116;8.696;2023-02-18T01:16:08;100749.25;;;9.25;83.46
78182;BME280;67441;50.116;8.696;2023-02-18T01:16:34;100863.53;;;9.82;83.54
78182;BME280;67441;50.116;8.696;2023-02-18T01:16:59;101081.41;;;11.18;82.98
78182;BME280;67441;50.116;8.696;2023-02-18T01:17:25;100843.06;;;9.69;82.94
78182;BME280;67441;50.116;8.696;2023-02-18T01:17:51;101074.50;;;11.25;83.02
78182;BME280;67441;50.116;8.696;2023-02-18T01:18:16;101079.72;;;11.22;83.11
78182;BME280;67441;50.116;8.696;2023-02-18T01:18:42;101077.13;;;11.23;82.87
78182;BME280;67441;50.116;8.696;2023-02-18T01:19:07;101076.25;;;11.24;82.83
78182;BME280;67441;50.116;8.696;2023-02-18T01:19:32;101077.00;;;11.17;82.73
78182;BME280;67441;50.116;8.696;2023-02-18T01:19:58;100919.84;;;10.31;82.91
78182;BME280;67441;50.116;8.696;2023-02-18T01:20:23;101073.56;;;11.21;82.93
78182;BME280;67441;50.116;8.696;2023-02-18T01:20:49;100885.81;;;9.99;82.69
78182;BME280;67441;50.116;8.696;2023-02-18T01:21:15;101078.81;;;11.19;83.18
78182;BME280;67441;50.116;8.696;2023-02-18T01:21:40;100844.31;;;9.85;83.11
78182;BME280;67441;50.116;8.696;2023-02-18T01:22:05;101076.25;;;11.23;83.02
78182;BME280;67441;50.116;8.696;2023-02-18T01:22:31;100572.88;;;8.28;82.86
78182;BME280;67441;50.116;8.696;2023-02-18T01:22:56;101078.69;;;11.15;82.86
78182;BME280;67441;50.116;8.696;2023-02-18T01:23:22;100964.09;;;10.49;82.89
78182;BME280;67441;50.116;8.696;2023-02-18T01:23:47;101078.00;;;11.24;83.17
78182;BME280;67441;50.116;8.696;2023-02-18T01:24:12;100417.25;;;7.16;82.52
78182;BME280;67441;50.116;8.696;2023-02-18T01:24:38;101077.97;;;11.22;82.85
78182;BME280;67441;50.116;8.696;2023-02-18T01:25:04;100963.97;;;10.43;82.72
78182;BME280;67441;50.116;8.696;2023-02-18T01:25:30;101040.75;;;11.05;82.45
78182;BME280;67441;50.116;8.696;2023-02-18T01:25:57;100959.97;;;10.60;82.24
78182;BME280;67441;50.116;8.696;2023-02-18T01:26:22;100434.00;;;7.57;81.89
78182;BME280;67441;50.116;8.696;2023-02-18T01:26:48;101075.44;;;11.27;82.37
78182;BME280;67441;50.116;8.696;2023-02-18T01:27:13;100277.13;;;6.59;81.97
78182;BME280;67441;50.116;8.696;2023-02-18T01:27:39;101075.38;;;11.24;82.38
78182;BME280;67441;50.116;8.696;2023-02-18T01:28:05;101069.16;;;11.20;82.79
78182;BME280;67441;50.116;8.696;2023-02-18T01:28:31;101067.31;;;11.16;82.44
78182;BME280;67441;50.116;8.696;2023-02-18T01:28:57;101076.19;;;11.19;82.34
78182;BME280;67441;50.116;8.696;2023-02-18T01:29:22;101008.75;;;10.87;82.36
78182;BME280;67441;50.116;8.696;2023-02-18T01:29:47;101069.22;;;11.23;81.84
78182;BME280;67441;50.116;8.696;2023-02-18T01:30:15;100861.94;;;9.89;81.81
78182;BME280;67441;50.116;8.696;2023-02-18T01:30:42;101075.28;;;11.19;81.98
78182;BME280;67441;50.116;8.696;2023-02-18T01:31:10;101014.03;;;10.87;81.64
78182;BME280;67441;50.116;8.696;2023-02-18T01:31:36;101023.00;;;10.95;81.69
78182;BME280;67441;50.116;8.696;2023-02-18T01:32:01;101075.44;;;11.27;81.69
78182;BME280;67441;50.116;8.696;2023-02-18T01:32:27;100651.63;;;8.66;81.32
78182;BME280;67441;50.116;8.696;2023-02-18T01:32:52;101077.13;;;11.25;81.57
78182;BME280;67441;50.116;8.696;2023-02-18T01:33:20;100928.03;;;10.45;81.48
78182;BME280;67441;50.116;8.696;2023-02-18T01:33:45;101059.75;;;11.34;81.34
78182;BME280;67441;50.116;8.696;2023-02-18T01:34:11;101078.97;;;11.29;81.11
78182;BME280;67441;50.116;8.696;2023-02-18T01:34:36;101071.13;;;11.30;80.98
78182;BME280;67441;50.116;8.696;2023-02-18T01:35:05;101056.19;;;11.32;80.54
78182;BME280;67441;50.116;8.696;2023-02-18T01:35:31;100817.13;;;9.84;80.34
78182;BME280;67441;50.116;8.696;2023-02-18T01:35:57;101075.50;;;11.31;80.55
78182;BME280;67441;50.116;8.696;2023-02-18T01:36:22;100882.16;;;9.93;80.76
78182;BME280;67441;50.116;8.696;2023-02-18T01:36:47;101068.47;;;11.30;80.50
78182;BME280;67441;50.116;8.696;2023-02-18T01:37:13;100696.50;;;9.15;80.38
78182;BME280;67441;50.116;8.696;2023-02-18T01:37:38;101075.56;;;11.33;80.03
78182;BME280;67441;50.116;8.696;2023-02-18T01:38:03;100947.63;;;10.58;79.91
78182;BME280;67441;50.116;8.696;2023-02-18T01:38:29;101065.84;;;11.32;80.08
78182;BME280;67441;50.116;8.696;2023-02-18T01:38:54;100930.00;;;10.55;79.99
78182;BME280;67441;50.116;8.696;2023-02-18T01:39:20;101059.69;;;11.30;79.90
78182;BME280;67441;50.116;8.696;2023-02-18T01:39:45;100964.56;;;10.70;79.53
78182;BME280;67441;50.116;8.696;2023-02-18T01:40:14;101071.06;;;11.27;79.83
78182;BME280;67441;50.116;8.696;2023-02-18T01:40:46;100689.50;;;9.15;79.59
78182;BME280;67441;50.116;8.696;2023-02-18T01:41:12;101059.69;;;11.31;80.00
78182;BME280;67441;50.116;8.696;2023-02-18T01:41:37;100873.19;;;10.22;79.81
78182;BME280;67441;50.116;8.696;2023-02-18T01:42:02;101059.78;;;11.36;79.48
78182;BME280;67441;50.116;8.696;2023-02-18T01:42:28;100634.78;;;8.94;79.24
78182;BME280;67441;50.116;8.696;2023-02-18T01:42:54;101063.34;;;11.38;79.61
78182;BME280;67441;50.116;8.696;2023-02-18T01:43:20;101060.78;;;11.42;79.22
78182;BME280;67441;50.116;8.696;2023-02-18T01:43:45;101075.72;;;11.40;79.41
78182;BME280;67441;50.116;8.696;2023-02-18T01:44:39;101068.63;;;11.39;79.38
78182;BME280;67441;50.116;8.696;2023-02-18T01:46:03;101065.09;;;11.37;79.09
78182;BME280;67441;50.116;8.696;2023-02-18T01:46:28;100546.66;;;8.28;79.10
78182;BME280;67441;50.116;8.696;2023-02-18T01:46:56;100917.84;;;10.60;79.24
78182;BME280;67441;50.116;8.696;2023-02-18T01:47:21;101063.47;;;11.44;79.05
78182;BME280;67441;50.116;8.696;2023-02-18T01:47:46;100877.06;;;10.40;79.09
78182;BME280;67441;50.116;8.696;2023-02-18T01:48:14;101063.41;;;11.41;79.00
78182;BME280;67441;50.116;8.696;2023-02-18T01:48:52;100964.78;;;10.81;78.99
78182;BME280;67441;50.116;8.696;2023-02-18T01:49:32;100977.09;;;10.84;79.42
78182;BME280;67441;50.116;8.696;2023-02-18T01:49:58;101058.88;;;11.34;79.56
78182;BME280;67441;50.116;8.696;2023-02-18T01:50:23;101047.53;;;11.38;79.13
78182;BME280;67441;50.116;8.696;2023-02-18T01:50:53;100956.88;;;10.83;79.18
78182;BME280;67441;50.116;8.696;2023-02-18T01:51:22;100977.22;;;10.90;79.49
78182;BME280;67441;50.116;8.696;2023-02-18T01:51:53;101053.59;;;11.34;79.29
78182;BME280;67441;50.116;8.696;2023-02-18T01:52:23;101045.78;;;11.38;79.04
78182;BME280;67441;50.116;8.696;2023-02-18T01:52:50;100843.22;;;10.17;78.48
78182;BME280;67441;50.116;8.696;2023-02-18T01:53:17;101048.34;;;11.34;79.06
78182;BME280;67441;50.116;8.696;2023-02-18T01:53:54;101042.25;;;11.36;79.25
78182;BME280;67441;50.116;8.696;2023-02-18T01:54:55;100871.19;;;10.12;78.46
78182;BME280;67441;50.116;8.696;2023-02-18T01:55:21;101049.41;;;11.43;78.59
78182;BME280;67441;50.116;8.696;2023-02-18T01:55:46;101048.47;;;11.40;78.96
78182;BME280;67441;50.116;8.696;2023-02-18T01:56:19;100466.25;;;7.91;78.69
78182;BME280;67441;50.116;8.696;2023-02-18T01:56:58;100764.28;;;9.72;78.72
78182;BME280;67441;50.116;8.696;2023-02-18T01:57:29;101042.13;;;11.30;78.80
78182;BME280;67441;50.116;8.696;2023-02-18T01:57:55;101038.56;;;11.28;79.05
78182;BME280;67441;50.116;8.696;2023-02-18T01:58:20;101050.09;;;11.33;79.07
78182;BME280;67441;50.116;8.696;2023-02-18T01:58:46;100968.50;;;10.92;78.52
78182;BME280;67441;50.116;8.696;2023-02-18T01:59:17;100680.78;;;9.18;79.05
78182;BME280;67441;50.116;8.696;2023-02-18T01:59:49;100984.22;;;10.89;79.42
78182;BME280;67441;50.116;8.696;2023-02-18T02:00:17;100944.31;;;10.68;78.97
78182;BME280;67441;50.116;8.696;2023-02-18T02:00:45;100492.72;;;8.02;78.94
78182;BME280;67441;50.116;8.696;2023-02-18T02:01:10;101048.09;;;11.22;79.15
78182;BME280;67441;50.116;8.696;2023-02-18T02:01:37;100915.91;;;10.52;79.11
78182;BME280;67441;50.116;8.696;2023-02-18T02:02:06;101038.56;;;11.28;79.46
78182;BME280;67441;50.116;8.696;2023-02-18T02:02:35;100956.41;;;10.60;79.36
78182;BME280;67441;50.116;8.696;2023-02-18T02:03:01;100954.25;;;10.83;79.19
78182;BME280;67441;50.116;8.696;2023-02-18T02:03:26;101040.13;;;11.18;79.19
78182;BME280;67441;50.116;8.696;2023-02-18T02:03:52;100582.13;;;8.49;79.07
78182;BME280;67441;50.116;8.696;2023-02-18T02:04:17;101045.34;;;11.15;79.52
78182;BME280;67441;50.116;8.696;2023-02-18T02:04:43;100936.34;;;10.65;79.17
78182;BME280;67441;50.116;8.696;2023-02-18T02:05:08;101034.16;;;11.29;79.05
78182;BME280;67441;50.116;8.696;2023-02-18T02:05:34;100963.09;;;10.85;78.76
78182;BME280;67441;50.116;8.696;2023-02-18T02:06:00;100948.56;;;10.63;79.00
78182;BME280;67441;50.116;8.696;2023-02-18T02:06:25;101035.72;;;11.17;79.05
78182;BME280;67441;50.116;8.696;2023-02-18T02:06:50;100724.47;;;9.14;78.75
78182;BME280;67441;50.116;8.696;2023-02-18T02:07:16;101045.38;;;11.17;79.07
78182;BME280;67441;50.116;8.696;2023-02-18T02:07:44;101001.06;;;10.98;78.64
78182;BME280;67441;50.116;8.696;2023-02-18T02:08:10;100777.34;;;9.69;78.48
78182;BME280;67441;50.116;8.696;2023-02-18T02:08:35;101035.69;;;11.16;78.55
78182;BME280;67441;50.116;8.696;2023-02-18T02:09:02;101060.38;;;11.21;78.46
78182;BME280;67441;50.116;8.696;2023-02-18T02:09:28;100895.50;;;10.41;78.34
78182;BME280;67441;50.116;8.696;2023-02-18T02:09:56;100936.13;;;10.54;78.22
78182;BME280;67441;50.116;8.696;2023-02-18T02:10:29;101050.84;;;11.28;78.08
78182;BME280;67441;50.116;8.696;2023-02-18T02:11:17;100948.91;;;10.80;78.15
78182;BME280;67441;50.116;8.696;2023-02-18T02:14:38;100620.41;;;8.78;77.73
78182;BME280;67441;50.116;8.696;2023-02-18T02:15:04;101029.56;;;11.17;77.69
78182;BME280;67441;50.116;8.696;2023-02-18T02:15:36;101029.56;;;11.17;77.87
78182;BME280;67441;50.116;8.696;2023-02-18T02:16:09;101031.31;;;11.18;77.83
78182;BME280;67441;50.116;8.696;2023-02-18T02:16:48;100933.63;;;10.60;77.49
78182;BME280;67441;50.116;8.696;2023-02-18T02:18:58;100900.03;;;10.47;76.72
78182;BME280;67441;50.116;8.696;2023-02-18T02:22:02;100875.28;;;10.39;76.64
78182;BME280;67441;50.116;8.696;2023-02-18T02:23:45;100887.72;;;10.46;76.64
78182;BME280;67441;50.116;8.696;2023-02-18T02:24:43;101017.34;;;11.22;76.57
78182;BME280;67441;50.116;8.696;2023-02-18T02:25:45;101017.41;;;11.24;76.47
78182;BME280;67441;50.116;8.696;2023-02-18T02:26:49;100974.78;;;10.99;76.28
78182;BME280;67441;50.116;8.696;2023-02-18T02:28:59;101020.09;;;11.28;76.60
78182;BME280;67441;50.116;8.696;2023-02-18T02:30:46;101011.25;;;11.23;76.42
78182;BME280;67441;50.116;8.696;2023-02-18T02:32:37;101018.34;;;11.29;76.15
78182;BME280;67441;50.116;8.696;2023-02-18T02:33:27;100978.34;;;11.03;76.29
78182;BME280;67441;50.116;8.696;2023-02-18T02:34:54;101016.66;;;11.31;76.17
78182;BME280;67441;50.116;8.696;2023-02-18T02:36:51;100915.44;;;10.73;75.61
78182;BME280;67441;50.116;8.696;2023-02-18T02:36:54;101022.94;;;11.37;75.45
78182;BME280;67441;50.116;8.696;2023-02-18T02:37:29;101024.69;;;11.38;75.85